CXA021 MROC-CYYZ
Flight info
| Callsign | CXA021 |
|---|---|
| Flight time | 4h 54m |
| Altitude | 34000 |
| Route | NANJO3U ULAPO DCT SIGMA UL214 CUN UT27 OMVIP/N0468F360 UT45 IRDOV L214 LEV/N0472F350 J31 MEI DCT IIU Q139 RINTE DCT QWERI NUBER6 |
| Aircraft | A306/H-SDE3FGHIRWY/LB1 |
Departure
| Time | 2026-05-06 14:57 |
|---|---|
| Airport | Juan Santamaría International Airport (MROC) |
Arrival
| Time | 2026-05-06 19:51 |
|---|---|
| Airport | Toronto Pearson International Airport (CYYZ) |
| Time | Latitude | Longitude | Altitude | Speed | Heading |
|---|---|---|---|---|---|
| 2026-05-06 14:22 | 9.99847 | -84.20160 | 3042 ft | 0 kts | 338° |
| 2026-05-06 14:47 | 9.99829 | -84.20151 | 3041 ft | 4 kts | 326° |
| 2026-05-06 14:47 | 9.99809 | -84.20134 | 3041 ft | 4 kts | 308° |
| 2026-05-06 14:48 | 9.99799 | -84.20120 | 3042 ft | 1 kts | 304° |
| 2026-05-06 14:50 | 9.99799 | -84.20121 | 3040 ft | 1 kts | 303° |
| 2026-05-06 14:50 | 9.99793 | -84.20133 | 3041 ft | 4 kts | 239° |
| 2026-05-06 14:50 | 9.99770 | -84.20157 | 3042 ft | 8 kts | 227° |
| 2026-05-06 14:51 | 9.99733 | -84.20232 | 3037 ft | 17 kts | 247° |
| 2026-05-06 14:51 | 9.99687 | -84.20350 | 3033 ft | 19 kts | 248° |
| 2026-05-06 14:51 | 9.99634 | -84.20483 | 3029 ft | 22 kts | 247° |
| 2026-05-06 14:51 | 9.99584 | -84.20628 | 3025 ft | 22 kts | 249° |
| 2026-05-06 14:52 | 9.99528 | -84.20777 | 3016 ft | 23 kts | 249° |
| 2026-05-06 14:52 | 9.99470 | -84.20930 | 3009 ft | 24 kts | 250° |
| 2026-05-06 14:52 | 9.99411 | -84.21093 | 3001 ft | 25 kts | 250° |
| 2026-05-06 14:52 | 9.99350 | -84.21263 | 2994 ft | 26 kts | 249° |
| 2026-05-06 14:53 | 9.99285 | -84.21435 | 2987 ft | 26 kts | 249° |
| 2026-05-06 14:53 | 9.99219 | -84.21609 | 2981 ft | 27 kts | 251° |
| 2026-05-06 14:53 | 9.99155 | -84.21781 | 2974 ft | 25 kts | 250° |
| 2026-05-06 14:53 | 9.99102 | -84.21944 | 2968 ft | 23 kts | 270° |
| 2026-05-06 14:54 | 9.99093 | -84.22101 | 2951 ft | 22 kts | 255° |
| 2026-05-06 14:54 | 9.99011 | -84.22193 | 2950 ft | 0 kts | 180° |
| 2026-05-06 14:54 | 9.99010 | -84.22192 | 2950 ft | 0 kts | 179° |
| 2026-05-06 14:54 | 9.98992 | -84.22191 | 2946 ft | 4 kts | 172° |
| 2026-05-06 14:55 | 9.98958 | -84.22182 | 2947 ft | 8 kts | 162° |
| 2026-05-06 14:55 | 9.98911 | -84.22142 | 2946 ft | 3 kts | 85° |
| 2026-05-06 14:55 | 9.98923 | -84.22126 | 2947 ft | 4 kts | 55° |
| 2026-05-06 14:55 | 9.98928 | -84.22113 | 2951 ft | 5 kts | 68° |
| 2026-05-06 14:56 | 9.99011 | -84.21896 | 2968 ft | 63 kts | 69° |
| 2026-05-06 14:56 | 9.99236 | -84.21303 | 2990 ft | 116 kts | 69° |
| 2026-05-06 14:56 | 9.99577 | -84.20392 | 3032 ft | 161 kts | 69° |
| 2026-05-06 14:56 | 10.00046 | -84.19266 | 3496 ft | 174 kts | 66° |
| 2026-05-06 14:57 | 10.00605 | -84.18223 | 4354 ft | 171 kts | 49° |
| 2026-05-06 14:57 | 10.01732 | -84.17708 | 4710 ft | 199 kts | 2° |
| 2026-05-06 14:57 | 10.03104 | -84.18211 | 5085 ft | 227 kts | 322° |
| 2026-05-06 14:57 | 10.04175 | -84.19448 | 5762 ft | 239 kts | 310° |
| 2026-05-06 14:58 | 10.05191 | -84.20826 | 6416 ft | 251 kts | 304° |
| 2026-05-06 14:58 | 10.05968 | -84.22492 | 6882 ft | 273 kts | 292° |
| 2026-05-06 14:58 | 10.06624 | -84.24363 | 7409 ft | 286 kts | 290° |
| 2026-05-06 14:58 | 10.07292 | -84.26298 | 8044 ft | 296 kts | 291° |
| 2026-05-06 14:59 | 10.08002 | -84.28290 | 8711 ft | 304 kts | 291° |
| 2026-05-06 14:59 | 10.08734 | -84.30316 | 9475 ft | 308 kts | 291° |
| 2026-05-06 14:59 | 10.09485 | -84.32375 | 10183 ft | 315 kts | 292° |
| 2026-05-06 14:59 | 10.10345 | -84.34485 | 10511 ft | 332 kts | 300° |
| 2026-05-06 15:00 | 10.11801 | -84.36349 | 10764 ft | 346 kts | 320° |
| 2026-05-06 15:00 | 10.13699 | -84.37929 | 11016 ft | 360 kts | 325° |
| 2026-05-06 15:00 | 10.15726 | -84.39511 | 11270 ft | 375 kts | 325° |
| 2026-05-06 15:00 | 10.17831 | -84.41158 | 11503 ft | 389 kts | 325° |
| 2026-05-06 15:01 | 10.19999 | -84.42866 | 11782 ft | 399 kts | 325° |
| 2026-05-06 15:01 | 10.22206 | -84.44614 | 12212 ft | 404 kts | 324° |
| 2026-05-06 15:01 | 10.24428 | -84.46380 | 12746 ft | 407 kts | 324° |
| 2026-05-06 15:01 | 10.26661 | -84.48156 | 13217 ft | 410 kts | 325° |
| 2026-05-06 15:02 | 10.28913 | -84.49947 | 13718 ft | 413 kts | 325° |
| 2026-05-06 15:02 | 10.31182 | -84.51751 | 14181 ft | 415 kts | 325° |
| 2026-05-06 15:02 | 10.33463 | -84.53570 | 14590 ft | 419 kts | 324° |
| 2026-05-06 15:02 | 10.35763 | -84.55402 | 15018 ft | 422 kts | 324° |
| 2026-05-06 15:03 | 10.38080 | -84.57248 | 15467 ft | 424 kts | 324° |
| 2026-05-06 15:03 | 10.40411 | -84.59105 | 15890 ft | 427 kts | 324° |
| 2026-05-06 15:03 | 10.42757 | -84.60974 | 16325 ft | 430 kts | 324° |
| 2026-05-06 15:03 | 10.45117 | -84.62854 | 16759 ft | 433 kts | 324° |
| 2026-05-06 15:04 | 10.47490 | -84.64746 | 17167 ft | 435 kts | 324° |
| 2026-05-06 15:04 | 10.49882 | -84.66653 | 17576 ft | 438 kts | 324° |
| 2026-05-06 15:04 | 10.52285 | -84.68570 | 17952 ft | 441 kts | 324° |
| 2026-05-06 15:04 | 10.54706 | -84.70500 | 18325 ft | 444 kts | 324° |
| 2026-05-06 15:05 | 10.57140 | -84.72441 | 18677 ft | 446 kts | 324° |
| 2026-05-06 15:05 | 10.59585 | -84.74393 | 18985 ft | 448 kts | 324° |
| 2026-05-06 15:05 | 10.62040 | -84.76352 | 19305 ft | 450 kts | 324° |
| 2026-05-06 15:05 | 10.64509 | -84.78322 | 19620 ft | 452 kts | 324° |
| 2026-05-06 15:06 | 10.66980 | -84.80310 | 19902 ft | 454 kts | 322° |
| 2026-05-06 15:06 | 10.69342 | -84.82457 | 20183 ft | 457 kts | 319° |
| 2026-05-06 15:06 | 10.71649 | -84.84703 | 20459 ft | 460 kts | 318° |
| 2026-05-06 15:06 | 10.73951 | -84.86965 | 20754 ft | 462 kts | 318° |
| 2026-05-06 15:07 | 10.76255 | -84.89228 | 21028 ft | 464 kts | 318° |
| 2026-05-06 15:07 | 10.78593 | -84.91524 | 21290 ft | 466 kts | 318° |
| 2026-05-06 15:07 | 10.80931 | -84.93819 | 21558 ft | 468 kts | 318° |
| 2026-05-06 15:07 | 10.83276 | -84.96120 | 21817 ft | 470 kts | 318° |
| 2026-05-06 15:08 | 10.85635 | -84.98435 | 22069 ft | 472 kts | 318° |
| 2026-05-06 15:08 | 10.88001 | -85.00755 | 22318 ft | 474 kts | 318° |
| 2026-05-06 15:08 | 10.90379 | -85.03089 | 22563 ft | 475 kts | 318° |
| 2026-05-06 15:08 | 10.92762 | -85.05429 | 22803 ft | 477 kts | 318° |
| 2026-05-06 15:09 | 10.95157 | -85.07781 | 23032 ft | 479 kts | 318° |
| 2026-05-06 15:09 | 10.97557 | -85.10138 | 23252 ft | 481 kts | 318° |
| 2026-05-06 15:09 | 10.99978 | -85.12503 | 23469 ft | 483 kts | 319° |
| 2026-05-06 15:09 | 11.02567 | -85.14666 | 23653 ft | 482 kts | 327° |
| 2026-05-06 15:10 | 11.05447 | -85.16396 | 23835 ft | 480 kts | 336° |
| 2026-05-06 15:10 | 11.08553 | -85.17615 | 24021 ft | 477 kts | 346° |
| 2026-05-06 15:10 | 11.11785 | -85.18337 | 24214 ft | 476 kts | 353° |
| 2026-05-06 15:10 | 11.15056 | -85.18860 | 24402 ft | 476 kts | 354° |
| 2026-05-06 15:11 | 11.18343 | -85.19300 | 24567 ft | 477 kts | 355° |
| 2026-05-06 15:11 | 11.21642 | -85.19709 | 24739 ft | 478 kts | 356° |
| 2026-05-06 15:11 | 11.24952 | -85.20115 | 24906 ft | 479 kts | 355° |
| 2026-05-06 15:11 | 11.28265 | -85.20531 | 25095 ft | 480 kts | 355° |
| 2026-05-06 15:12 | 11.31587 | -85.20959 | 25252 ft | 482 kts | 355° |
| 2026-05-06 15:12 | 11.34916 | -85.21397 | 25415 ft | 483 kts | 355° |
| 2026-05-06 15:12 | 11.38252 | -85.21843 | 25570 ft | 484 kts | 355° |
| 2026-05-06 15:12 | 11.41602 | -85.22293 | 25730 ft | 486 kts | 355° |
| 2026-05-06 15:13 | 11.44945 | -85.22744 | 25896 ft | 487 kts | 355° |
| 2026-05-06 15:13 | 11.48311 | -85.23199 | 26051 ft | 488 kts | 355° |
| 2026-05-06 15:13 | 11.51681 | -85.23653 | 26206 ft | 489 kts | 355° |
| 2026-05-06 15:13 | 11.55065 | -85.24109 | 26358 ft | 490 kts | 355° |
| 2026-05-06 15:14 | 11.58452 | -85.24565 | 26506 ft | 491 kts | 355° |
| 2026-05-06 15:14 | 11.61838 | -85.25021 | 26661 ft | 492 kts | 355° |
| 2026-05-06 15:14 | 11.65242 | -85.25479 | 26806 ft | 493 kts | 355° |
| 2026-05-06 15:14 | 11.68644 | -85.25937 | 26994 ft | 493 kts | 355° |
| 2026-05-06 15:15 | 11.72041 | -85.26395 | 27218 ft | 493 kts | 355° |
| 2026-05-06 15:15 | 11.75438 | -85.26853 | 27428 ft | 492 kts | 355° |
| 2026-05-06 15:15 | 11.78837 | -85.27312 | 27653 ft | 492 kts | 355° |
| 2026-05-06 15:15 | 11.82225 | -85.27769 | 27908 ft | 491 kts | 355° |
| 2026-05-06 15:16 | 11.85617 | -85.28225 | 28146 ft | 491 kts | 355° |
| 2026-05-06 15:16 | 11.89003 | -85.28683 | 28397 ft | 490 kts | 355° |
| 2026-05-06 15:16 | 11.92384 | -85.29140 | 28653 ft | 490 kts | 355° |
| 2026-05-06 15:16 | 11.95758 | -85.29596 | 28917 ft | 489 kts | 355° |
| 2026-05-06 15:17 | 11.99133 | -85.30051 | 29176 ft | 489 kts | 355° |
| 2026-05-06 15:17 | 12.02501 | -85.30505 | 29443 ft | 488 kts | 355° |
| 2026-05-06 15:17 | 12.05863 | -85.30959 | 29713 ft | 487 kts | 355° |
| 2026-05-06 15:17 | 12.09230 | -85.31413 | 30004 ft | 487 kts | 355° |
| 2026-05-06 15:18 | 12.12583 | -85.31866 | 30238 ft | 486 kts | 354° |
| 2026-05-06 15:18 | 12.14799 | -85.32166 | 30395 ft | 486 kts | 354° |
| 2026-05-06 15:18 | 12.18153 | -85.32619 | 30646 ft | 485 kts | 354° |
| 2026-05-06 15:18 | 12.21492 | -85.33070 | 30888 ft | 484 kts | 354° |
| 2026-05-06 15:19 | 12.24825 | -85.33521 | 31131 ft | 483 kts | 354° |
| 2026-05-06 15:19 | 12.28163 | -85.33973 | 31369 ft | 483 kts | 354° |
| 2026-05-06 15:19 | 12.31492 | -85.34424 | 31632 ft | 482 kts | 354° |
| 2026-05-06 15:19 | 12.34810 | -85.34874 | 31891 ft | 481 kts | 354° |
| 2026-05-06 15:20 | 12.38125 | -85.35321 | 32141 ft | 480 kts | 354° |
| 2026-05-06 15:20 | 12.41437 | -85.35769 | 32389 ft | 480 kts | 354° |
| 2026-05-06 15:20 | 12.44745 | -85.36217 | 32620 ft | 479 kts | 354° |
| 2026-05-06 15:20 | 12.48046 | -85.36665 | 32882 ft | 478 kts | 354° |
| 2026-05-06 15:21 | 12.51343 | -85.37111 | 33149 ft | 477 kts | 354° |
| 2026-05-06 15:21 | 12.54632 | -85.37556 | 33387 ft | 477 kts | 354° |
| 2026-05-06 15:21 | 12.57913 | -85.38002 | 33624 ft | 476 kts | 354° |
| 2026-05-06 15:21 | 12.61200 | -85.38448 | 33863 ft | 476 kts | 354° |
| 2026-05-06 15:22 | 12.64481 | -85.38894 | 33949 ft | 476 kts | 354° |
| 2026-05-06 15:22 | 12.71045 | -85.39785 | 33968 ft | 475 kts | 354° |
| 2026-05-06 15:23 | 12.77611 | -85.40676 | 33965 ft | 476 kts | 354° |
| 2026-05-06 15:23 | 12.84132 | -85.41561 | 33966 ft | 476 kts | 354° |
| 2026-05-06 15:24 | 12.90696 | -85.42453 | 33971 ft | 476 kts | 354° |
| 2026-05-06 15:24 | 12.97296 | -85.43348 | 33972 ft | 476 kts | 354° |
| 2026-05-06 15:25 | 13.03862 | -85.44244 | 33973 ft | 476 kts | 354° |
| 2026-05-06 15:25 | 13.10427 | -85.45139 | 33982 ft | 476 kts | 354° |
| 2026-05-06 15:26 | 13.16993 | -85.46033 | 33989 ft | 476 kts | 354° |
| 2026-05-06 15:26 | 13.23516 | -85.46925 | 33993 ft | 476 kts | 354° |
| 2026-05-06 15:27 | 13.30084 | -85.47816 | 33989 ft | 476 kts | 354° |
| 2026-05-06 15:27 | 13.36647 | -85.48711 | 33996 ft | 476 kts | 354° |
| 2026-05-06 15:28 | 13.43216 | -85.49606 | 34003 ft | 476 kts | 354° |
| 2026-05-06 15:28 | 13.49783 | -85.50503 | 33992 ft | 476 kts | 354° |
| 2026-05-06 15:29 | 13.56351 | -85.51401 | 34002 ft | 476 kts | 354° |
| 2026-05-06 15:29 | 13.62915 | -85.52299 | 34000 ft | 476 kts | 354° |
| 2026-05-06 15:30 | 13.69483 | -85.53198 | 34007 ft | 476 kts | 354° |
| 2026-05-06 15:30 | 13.76046 | -85.54098 | 34011 ft | 475 kts | 354° |
| 2026-05-06 15:31 | 13.82610 | -85.54997 | 34010 ft | 476 kts | 354° |
| 2026-05-06 15:31 | 13.89181 | -85.55897 | 34007 ft | 476 kts | 354° |
| 2026-05-06 15:32 | 13.99036 | -85.57249 | 34016 ft | 476 kts | 354° |
| 2026-05-06 15:32 | 14.05604 | -85.58150 | 34022 ft | 476 kts | 354° |
| 2026-05-06 15:33 | 14.12176 | -85.59055 | 34017 ft | 476 kts | 354° |
| 2026-05-06 15:33 | 14.18747 | -85.59956 | 34027 ft | 476 kts | 354° |
| 2026-05-06 15:34 | 14.25322 | -85.60860 | 34028 ft | 477 kts | 354° |
| 2026-05-06 15:34 | 14.31897 | -85.61764 | 34026 ft | 476 kts | 354° |
| 2026-05-06 15:35 | 14.38471 | -85.62670 | 34032 ft | 477 kts | 354° |
| 2026-05-06 15:35 | 14.45049 | -85.63575 | 34033 ft | 477 kts | 354° |
| 2026-05-06 15:36 | 14.51627 | -85.64481 | 34032 ft | 477 kts | 354° |
| 2026-05-06 15:36 | 14.58207 | -85.65390 | 34043 ft | 477 kts | 354° |
| 2026-05-06 15:37 | 14.64789 | -85.66296 | 34054 ft | 477 kts | 354° |
| 2026-05-06 15:37 | 14.71373 | -85.67205 | 34068 ft | 477 kts | 355° |
| 2026-05-06 15:38 | 14.77965 | -85.68115 | 34066 ft | 477 kts | 355° |
| 2026-05-06 15:38 | 14.84553 | -85.69026 | 34069 ft | 477 kts | 355° |
| 2026-05-06 15:39 | 14.91149 | -85.69939 | 34071 ft | 478 kts | 355° |
| 2026-05-06 15:39 | 14.97738 | -85.70850 | 34072 ft | 478 kts | 355° |
| 2026-05-06 15:40 | 15.04326 | -85.71762 | 34076 ft | 478 kts | 355° |
| 2026-05-06 15:40 | 15.10921 | -85.72676 | 34063 ft | 477 kts | 355° |
| 2026-05-06 15:41 | 15.17511 | -85.73590 | 34058 ft | 478 kts | 355° |
| 2026-05-06 15:41 | 15.24055 | -85.74499 | 34047 ft | 478 kts | 355° |
| 2026-05-06 15:42 | 15.30682 | -85.75418 | 34044 ft | 478 kts | 355° |
| 2026-05-06 15:42 | 15.37268 | -85.76332 | 34041 ft | 478 kts | 355° |
| 2026-05-06 15:43 | 15.43860 | -85.77248 | 34028 ft | 477 kts | 354° |
| 2026-05-06 15:43 | 15.50450 | -85.78166 | 34022 ft | 477 kts | 354° |
| 2026-05-06 15:44 | 15.56987 | -85.79078 | 34015 ft | 478 kts | 354° |
| 2026-05-06 15:44 | 15.63577 | -85.79995 | 34012 ft | 478 kts | 354° |
| 2026-05-06 15:45 | 15.70164 | -85.80912 | 34001 ft | 478 kts | 354° |
| 2026-05-06 15:45 | 15.76752 | -85.81832 | 33989 ft | 478 kts | 354° |
| 2026-05-06 15:46 | 15.83341 | -85.82751 | 33984 ft | 478 kts | 354° |
| 2026-05-06 15:46 | 15.89933 | -85.83669 | 33980 ft | 477 kts | 354° |
| 2026-05-06 15:47 | 15.96508 | -85.84591 | 33984 ft | 477 kts | 354° |
| 2026-05-06 15:47 | 16.03092 | -85.85511 | 33986 ft | 477 kts | 354° |
| 2026-05-06 15:48 | 16.09682 | -85.86431 | 33992 ft | 477 kts | 354° |
| 2026-05-06 15:48 | 16.16265 | -85.87352 | 33990 ft | 477 kts | 354° |
| 2026-05-06 15:49 | 16.22851 | -85.88275 | 33990 ft | 477 kts | 354° |
| 2026-05-06 15:49 | 16.29426 | -85.89197 | 33989 ft | 477 kts | 354° |
| 2026-05-06 15:50 | 16.36001 | -85.90119 | 33994 ft | 476 kts | 354° |
| 2026-05-06 15:50 | 16.42567 | -85.91041 | 33989 ft | 476 kts | 354° |
| 2026-05-06 15:51 | 16.49137 | -85.91963 | 33990 ft | 476 kts | 354° |
| 2026-05-06 15:51 | 16.55703 | -85.92886 | 33990 ft | 476 kts | 354° |
| 2026-05-06 15:52 | 16.62269 | -85.93810 | 33993 ft | 476 kts | 354° |
| 2026-05-06 15:52 | 16.68834 | -85.94735 | 34005 ft | 476 kts | 354° |
| 2026-05-06 15:53 | 16.75401 | -85.95660 | 34001 ft | 476 kts | 354° |
| 2026-05-06 15:53 | 16.81960 | -85.96585 | 34004 ft | 476 kts | 354° |
| 2026-05-06 15:54 | 16.88521 | -85.97511 | 34001 ft | 475 kts | 354° |
| 2026-05-06 15:54 | 16.95078 | -85.98437 | 33999 ft | 475 kts | 354° |
| 2026-05-06 15:55 | 17.01635 | -85.99364 | 34000 ft | 476 kts | 354° |
| 2026-05-06 15:55 | 17.08153 | -86.00286 | 34005 ft | 476 kts | 354° |
| 2026-05-06 15:56 | 17.14712 | -86.01213 | 34005 ft | 476 kts | 354° |
| 2026-05-06 15:56 | 17.21273 | -86.02142 | 34003 ft | 476 kts | 354° |
| 2026-05-06 15:57 | 17.27836 | -86.03071 | 34007 ft | 475 kts | 354° |
| 2026-05-06 15:57 | 17.34394 | -86.04000 | 34010 ft | 475 kts | 354° |
| 2026-05-06 15:58 | 17.40955 | -86.04929 | 34004 ft | 475 kts | 354° |
| 2026-05-06 15:58 | 17.47506 | -86.05858 | 34010 ft | 475 kts | 354° |
| 2026-05-06 15:59 | 17.52961 | -86.06632 | 34012 ft | 475 kts | 354° |
| 2026-05-06 15:59 | 17.60576 | -86.07717 | 34013 ft | 475 kts | 354° |
| 2026-05-06 16:00 | 17.66063 | -86.08501 | 34007 ft | 475 kts | 354° |
| 2026-05-06 16:00 | 17.72611 | -86.09432 | 34007 ft | 475 kts | 354° |
| 2026-05-06 16:01 | 17.79162 | -86.10365 | 34008 ft | 475 kts | 354° |
| 2026-05-06 16:01 | 17.85717 | -86.11299 | 34004 ft | 475 kts | 354° |
| 2026-05-06 16:02 | 17.92270 | -86.12233 | 34018 ft | 475 kts | 354° |
| 2026-05-06 16:02 | 17.98820 | -86.13170 | 34020 ft | 475 kts | 354° |
| 2026-05-06 16:03 | 18.05379 | -86.14106 | 34013 ft | 475 kts | 354° |
| 2026-05-06 16:03 | 18.11931 | -86.15043 | 34013 ft | 475 kts | 354° |
| 2026-05-06 16:04 | 18.18486 | -86.15980 | 34016 ft | 475 kts | 354° |
| 2026-05-06 16:04 | 18.24993 | -86.16910 | 34014 ft | 475 kts | 354° |
| 2026-05-06 16:05 | 18.31552 | -86.17853 | 34013 ft | 475 kts | 354° |
| 2026-05-06 16:05 | 18.38107 | -86.18794 | 34022 ft | 475 kts | 354° |
| 2026-05-06 16:06 | 18.44659 | -86.19733 | 34012 ft | 475 kts | 354° |
| 2026-05-06 16:06 | 18.51213 | -86.20677 | 34014 ft | 475 kts | 353° |
| 2026-05-06 16:07 | 18.57756 | -86.21618 | 34015 ft | 474 kts | 353° |
| 2026-05-06 16:07 | 18.64299 | -86.22561 | 34023 ft | 474 kts | 353° |
| 2026-05-06 16:08 | 18.70832 | -86.23501 | 34017 ft | 474 kts | 353° |
| 2026-05-06 16:08 | 18.77368 | -86.24443 | 34020 ft | 474 kts | 353° |
| 2026-05-06 16:09 | 18.83901 | -86.25386 | 34018 ft | 473 kts | 353° |
| 2026-05-06 16:09 | 18.89347 | -86.26171 | 34019 ft | 473 kts | 353° |
| 2026-05-06 16:10 | 18.95867 | -86.27112 | 34019 ft | 472 kts | 353° |
| 2026-05-06 16:10 | 19.02375 | -86.28052 | 34020 ft | 472 kts | 353° |
| 2026-05-06 16:11 | 19.08885 | -86.28994 | 34021 ft | 472 kts | 353° |
| 2026-05-06 16:11 | 19.15390 | -86.29937 | 34020 ft | 471 kts | 353° |
| 2026-05-06 16:12 | 19.21884 | -86.30878 | 34023 ft | 471 kts | 353° |
| 2026-05-06 16:12 | 19.28415 | -86.31824 | 34019 ft | 471 kts | 353° |
| 2026-05-06 16:13 | 19.34857 | -86.32759 | 34022 ft | 470 kts | 353° |
| 2026-05-06 16:13 | 19.41333 | -86.33699 | 34027 ft | 470 kts | 353° |
| 2026-05-06 16:14 | 19.47815 | -86.34641 | 34023 ft | 469 kts | 353° |
| 2026-05-06 16:14 | 19.54285 | -86.35582 | 34024 ft | 469 kts | 353° |
| 2026-05-06 16:15 | 19.60740 | -86.36582 | 34020 ft | 469 kts | 348° |
| 2026-05-06 16:15 | 19.67011 | -86.38472 | 34026 ft | 469 kts | 343° |
| 2026-05-06 16:16 | 19.73213 | -86.40595 | 34023 ft | 468 kts | 342° |
| 2026-05-06 16:16 | 19.79395 | -86.42761 | 34026 ft | 468 kts | 342° |
| 2026-05-06 16:17 | 19.85575 | -86.44919 | 34027 ft | 467 kts | 342° |
| 2026-05-06 16:17 | 19.91752 | -86.47066 | 34025 ft | 466 kts | 342° |
| 2026-05-06 16:18 | 19.97926 | -86.49210 | 34027 ft | 466 kts | 342° |
| 2026-05-06 16:18 | 20.04085 | -86.51350 | 34027 ft | 466 kts | 342° |
| 2026-05-06 16:19 | 20.10242 | -86.53491 | 34024 ft | 465 kts | 342° |
| 2026-05-06 16:19 | 20.16391 | -86.55631 | 34026 ft | 465 kts | 342° |
| 2026-05-06 16:20 | 20.22532 | -86.57771 | 34027 ft | 464 kts | 342° |
| 2026-05-06 16:20 | 20.28662 | -86.59909 | 34029 ft | 463 kts | 342° |
| 2026-05-06 16:21 | 20.34789 | -86.62046 | 34031 ft | 462 kts | 342° |
| 2026-05-06 16:21 | 20.40903 | -86.64181 | 34030 ft | 462 kts | 342° |
| 2026-05-06 16:22 | 20.47024 | -86.66322 | 34036 ft | 462 kts | 341° |
| 2026-05-06 16:22 | 20.53139 | -86.68461 | 34041 ft | 462 kts | 341° |
| 2026-05-06 16:23 | 20.59246 | -86.70601 | 34040 ft | 462 kts | 341° |
| 2026-05-06 16:23 | 20.65306 | -86.72727 | 34036 ft | 461 kts | 341° |
| 2026-05-06 16:24 | 20.71444 | -86.74889 | 34037 ft | 461 kts | 341° |
| 2026-05-06 16:24 | 20.77521 | -86.77032 | 34034 ft | 461 kts | 341° |
| 2026-05-06 16:25 | 20.83596 | -86.79178 | 34038 ft | 460 kts | 341° |
| 2026-05-06 16:25 | 20.89685 | -86.81329 | 34041 ft | 460 kts | 341° |
| 2026-05-06 16:26 | 20.95766 | -86.83480 | 34046 ft | 460 kts | 341° |
| 2026-05-06 16:26 | 21.01874 | -86.85498 | 34044 ft | 460 kts | 347° |
| 2026-05-06 16:27 | 21.08224 | -86.86380 | 34045 ft | 460 kts | 354° |
| 2026-05-06 16:27 | 21.14604 | -86.86942 | 34043 ft | 460 kts | 355° |
| 2026-05-06 16:28 | 21.21002 | -86.87449 | 34042 ft | 460 kts | 355° |
| 2026-05-06 16:28 | 21.27386 | -86.87969 | 34034 ft | 460 kts | 354° |
| 2026-05-06 16:29 | 21.33771 | -86.88504 | 34030 ft | 460 kts | 354° |
| 2026-05-06 16:29 | 21.40155 | -86.89045 | 34027 ft | 460 kts | 354° |
| 2026-05-06 16:30 | 21.45459 | -86.89495 | 34026 ft | 460 kts | 354° |
| 2026-05-06 16:30 | 21.52909 | -86.90128 | 34028 ft | 459 kts | 354° |
| 2026-05-06 16:31 | 21.59281 | -86.90670 | 34026 ft | 459 kts | 354° |
| 2026-05-06 16:31 | 21.64663 | -86.91129 | 34027 ft | 458 kts | 354° |
| 2026-05-06 16:32 | 21.71012 | -86.91669 | 34025 ft | 458 kts | 354° |
| 2026-05-06 16:32 | 21.77374 | -86.92212 | 33983 ft | 457 kts | 354° |
| 2026-05-06 16:33 | 21.83771 | -86.92758 | 34027 ft | 465 kts | 354° |
| 2026-05-06 16:34 | 21.93536 | -86.93593 | 34029 ft | 471 kts | 354° |
| 2026-05-06 16:34 | 22.00071 | -86.94149 | 34026 ft | 471 kts | 353° |
| 2026-05-06 16:35 | 22.06601 | -86.94708 | 34025 ft | 471 kts | 353° |
| 2026-05-06 16:35 | 22.13127 | -86.95265 | 34027 ft | 470 kts | 353° |
| 2026-05-06 16:36 | 22.19695 | -86.95827 | 34025 ft | 470 kts | 353° |
| 2026-05-06 16:36 | 22.25118 | -86.96292 | 34026 ft | 470 kts | 353° |
| 2026-05-06 16:37 | 22.32709 | -86.96944 | 34026 ft | 471 kts | 353° |
| 2026-05-06 16:37 | 22.39233 | -86.97504 | 34026 ft | 470 kts | 353° |
| 2026-05-06 16:38 | 22.44704 | -86.97974 | 34025 ft | 470 kts | 353° |
| 2026-05-06 16:38 | 22.51183 | -86.98531 | 34025 ft | 470 kts | 353° |
| 2026-05-06 16:39 | 22.57747 | -86.99097 | 34029 ft | 470 kts | 353° |
| 2026-05-06 16:39 | 22.64276 | -86.99660 | 34029 ft | 470 kts | 353° |
| 2026-05-06 16:40 | 22.70764 | -87.00220 | 34029 ft | 471 kts | 353° |
| 2026-05-06 16:40 | 22.77296 | -87.00784 | 34029 ft | 471 kts | 353° |
| 2026-05-06 16:41 | 22.83835 | -87.01349 | 34030 ft | 471 kts | 353° |
| 2026-05-06 16:41 | 22.90370 | -87.01915 | 34029 ft | 471 kts | 353° |
| 2026-05-06 16:42 | 22.96895 | -87.02480 | 34028 ft | 470 kts | 353° |
| 2026-05-06 16:42 | 23.03375 | -87.03318 | 34027 ft | 467 kts | 343° |
| 2026-05-06 16:43 | 23.09297 | -87.05984 | 34025 ft | 459 kts | 325° |
| 2026-05-06 16:43 | 23.14536 | -87.09933 | 34029 ft | 458 kts | 321° |
| 2026-05-06 16:44 | 23.19634 | -87.14086 | 34028 ft | 458 kts | 320° |
| 2026-05-06 16:44 | 23.24717 | -87.18248 | 34024 ft | 457 kts | 321° |
| 2026-05-06 16:45 | 23.29816 | -87.22386 | 34025 ft | 457 kts | 321° |
| 2026-05-06 16:45 | 23.34930 | -87.26518 | 34024 ft | 457 kts | 321° |
| 2026-05-06 16:46 | 23.40040 | -87.30646 | 34024 ft | 457 kts | 321° |
| 2026-05-06 16:46 | 23.45145 | -87.34776 | 34024 ft | 457 kts | 321° |
| 2026-05-06 16:47 | 23.50254 | -87.38915 | 34024 ft | 457 kts | 321° |
| 2026-05-06 16:47 | 23.55347 | -87.43045 | 34023 ft | 456 kts | 321° |
| 2026-05-06 16:48 | 23.60438 | -87.47178 | 34025 ft | 456 kts | 321° |
| 2026-05-06 16:48 | 23.65526 | -87.51312 | 34025 ft | 455 kts | 321° |
| 2026-05-06 16:49 | 23.70613 | -87.55449 | 34023 ft | 455 kts | 320° |
| 2026-05-06 16:49 | 23.75687 | -87.59580 | 34027 ft | 455 kts | 320° |
| 2026-05-06 16:50 | 23.80762 | -87.63716 | 34021 ft | 455 kts | 320° |
| 2026-05-06 16:50 | 23.85799 | -87.67826 | 34023 ft | 455 kts | 320° |
| 2026-05-06 16:51 | 23.90867 | -87.71965 | 34017 ft | 454 kts | 320° |
| 2026-05-06 16:51 | 23.95931 | -87.76105 | 34017 ft | 454 kts | 320° |
| 2026-05-06 16:52 | 24.00988 | -87.80244 | 34019 ft | 454 kts | 320° |
| 2026-05-06 16:52 | 24.06044 | -87.84386 | 34018 ft | 454 kts | 320° |
| 2026-05-06 16:53 | 24.11097 | -87.88529 | 34021 ft | 454 kts | 320° |
| 2026-05-06 16:53 | 24.16155 | -87.92681 | 34018 ft | 454 kts | 320° |
| 2026-05-06 16:54 | 24.21210 | -87.96835 | 34015 ft | 454 kts | 320° |
| 2026-05-06 16:54 | 24.26254 | -88.00983 | 34021 ft | 454 kts | 320° |
| 2026-05-06 16:55 | 24.31303 | -88.05141 | 34019 ft | 454 kts | 320° |
| 2026-05-06 16:55 | 24.36350 | -88.09301 | 34019 ft | 453 kts | 320° |
| 2026-05-06 16:56 | 24.41394 | -88.13462 | 34015 ft | 454 kts | 320° |
| 2026-05-06 16:56 | 24.46437 | -88.17627 | 34013 ft | 454 kts | 319° |
| 2026-05-06 16:57 | 24.51886 | -88.21180 | 34017 ft | 461 kts | 333° |
| 2026-05-06 16:57 | 24.57892 | -88.23705 | 34019 ft | 463 kts | 336° |
| 2026-05-06 16:58 | 24.63986 | -88.26044 | 34016 ft | 464 kts | 336° |
| 2026-05-06 16:58 | 24.70084 | -88.28366 | 34019 ft | 463 kts | 336° |
| 2026-05-06 16:59 | 24.76171 | -88.30710 | 34015 ft | 463 kts | 336° |
| 2026-05-06 16:59 | 24.82253 | -88.33070 | 34015 ft | 463 kts | 336° |
| 2026-05-06 17:00 | 24.88331 | -88.35434 | 34015 ft | 463 kts | 336° |
| 2026-05-06 17:00 | 24.94404 | -88.37799 | 34015 ft | 463 kts | 336° |
| 2026-05-06 17:01 | 25.00479 | -88.40165 | 34013 ft | 463 kts | 336° |
| 2026-05-06 17:01 | 25.06552 | -88.42533 | 34014 ft | 463 kts | 336° |
| 2026-05-06 17:02 | 25.12626 | -88.44904 | 34012 ft | 463 kts | 335° |
| 2026-05-06 17:02 | 25.18701 | -88.47278 | 34012 ft | 463 kts | 335° |
| 2026-05-06 17:03 | 25.24773 | -88.49653 | 34017 ft | 463 kts | 335° |
| 2026-05-06 17:03 | 25.30838 | -88.52028 | 34014 ft | 462 kts | 335° |
| 2026-05-06 17:04 | 25.36904 | -88.54406 | 34016 ft | 462 kts | 335° |
| 2026-05-06 17:04 | 25.42967 | -88.56786 | 34017 ft | 462 kts | 335° |
| 2026-05-06 17:05 | 25.49033 | -88.59169 | 34012 ft | 463 kts | 335° |
| 2026-05-06 17:05 | 25.55102 | -88.61556 | 34011 ft | 463 kts | 335° |
| 2026-05-06 17:06 | 25.61168 | -88.63944 | 34014 ft | 463 kts | 335° |
| 2026-05-06 17:06 | 25.67236 | -88.66336 | 34018 ft | 463 kts | 335° |
| 2026-05-06 17:07 | 25.73316 | -88.68735 | 34010 ft | 463 kts | 335° |
| 2026-05-06 17:07 | 25.79429 | -88.71149 | 34003 ft | 464 kts | 335° |
| 2026-05-06 17:08 | 25.85470 | -88.73538 | 34004 ft | 464 kts | 335° |
| 2026-05-06 17:08 | 25.91549 | -88.75944 | 34011 ft | 464 kts | 335° |
| 2026-05-06 17:09 | 25.97671 | -88.78369 | 34013 ft | 464 kts | 335° |
| 2026-05-06 17:09 | 26.03713 | -88.80766 | 34010 ft | 464 kts | 335° |
| 2026-05-06 17:10 | 26.09837 | -88.83198 | 34013 ft | 464 kts | 335° |
| 2026-05-06 17:10 | 26.15914 | -88.85614 | 34008 ft | 464 kts | 335° |
| 2026-05-06 17:11 | 26.21987 | -88.88031 | 34008 ft | 463 kts | 335° |
| 2026-05-06 17:11 | 26.28061 | -88.90451 | 34006 ft | 463 kts | 335° |
| 2026-05-06 17:12 | 26.33105 | -88.92463 | 34010 ft | 463 kts | 335° |
| 2026-05-06 17:12 | 26.39172 | -88.94886 | 34011 ft | 463 kts | 335° |
| 2026-05-06 17:13 | 26.45234 | -88.97310 | 34009 ft | 463 kts | 335° |
| 2026-05-06 17:13 | 26.51293 | -88.99734 | 34011 ft | 463 kts | 335° |
| 2026-05-06 17:14 | 26.57359 | -89.02164 | 34008 ft | 462 kts | 334° |
| 2026-05-06 17:14 | 26.63415 | -89.04593 | 34010 ft | 462 kts | 334° |
| 2026-05-06 17:15 | 26.69470 | -89.07024 | 34009 ft | 462 kts | 334° |
| 2026-05-06 17:15 | 26.75523 | -89.09458 | 34009 ft | 462 kts | 334° |
| 2026-05-06 17:16 | 26.81575 | -89.11893 | 34013 ft | 462 kts | 334° |
| 2026-05-06 17:16 | 26.87626 | -89.14331 | 34014 ft | 462 kts | 334° |
| 2026-05-06 17:17 | 26.93670 | -89.16770 | 34010 ft | 462 kts | 334° |
| 2026-05-06 17:17 | 26.99715 | -89.19211 | 34010 ft | 461 kts | 334° |
| 2026-05-06 17:18 | 27.05755 | -89.21653 | 34013 ft | 461 kts | 334° |
| 2026-05-06 17:18 | 27.11796 | -89.24101 | 34008 ft | 461 kts | 334° |
| 2026-05-06 17:19 | 27.17825 | -89.26575 | 34015 ft | 460 kts | 334° |
| 2026-05-06 17:19 | 27.23839 | -89.29056 | 34021 ft | 460 kts | 334° |
| 2026-05-06 17:20 | 27.29847 | -89.31536 | 34017 ft | 460 kts | 334° |
| 2026-05-06 17:20 | 27.35845 | -89.34013 | 34015 ft | 459 kts | 334° |
| 2026-05-06 17:21 | 27.41842 | -89.36491 | 34013 ft | 459 kts | 334° |
| 2026-05-06 17:21 | 27.47833 | -89.38969 | 34016 ft | 458 kts | 334° |
| 2026-05-06 17:22 | 27.53816 | -89.41447 | 34018 ft | 458 kts | 334° |
| 2026-05-06 17:22 | 27.59789 | -89.43923 | 34008 ft | 457 kts | 333° |
| 2026-05-06 17:23 | 27.65760 | -89.46402 | 34017 ft | 456 kts | 333° |
| 2026-05-06 17:23 | 27.71714 | -89.48877 | 34011 ft | 456 kts | 333° |
| 2026-05-06 17:24 | 27.77662 | -89.51351 | 34014 ft | 455 kts | 333° |
| 2026-05-06 17:24 | 27.83603 | -89.53827 | 34012 ft | 455 kts | 333° |
| 2026-05-06 17:25 | 27.89532 | -89.56299 | 34013 ft | 454 kts | 333° |
| 2026-05-06 17:25 | 27.95456 | -89.58773 | 34014 ft | 454 kts | 333° |
| 2026-05-06 17:26 | 28.01373 | -89.61247 | 34018 ft | 453 kts | 333° |
| 2026-05-06 17:26 | 28.07281 | -89.63719 | 34013 ft | 453 kts | 333° |
| 2026-05-06 17:27 | 28.13188 | -89.66195 | 34014 ft | 452 kts | 333° |
| 2026-05-06 17:27 | 28.19081 | -89.68667 | 34015 ft | 451 kts | 333° |
| 2026-05-06 17:28 | 28.24961 | -89.71137 | 34017 ft | 451 kts | 332° |
| 2026-05-06 17:28 | 28.30835 | -89.73607 | 34016 ft | 450 kts | 332° |
| 2026-05-06 17:29 | 28.36705 | -89.76078 | 34018 ft | 450 kts | 332° |
| 2026-05-06 17:29 | 28.42566 | -89.78547 | 34016 ft | 449 kts | 332° |
| 2026-05-06 17:30 | 28.48427 | -89.81020 | 34016 ft | 449 kts | 332° |
| 2026-05-06 17:30 | 28.54276 | -89.83490 | 34018 ft | 448 kts | 332° |
| 2026-05-06 17:31 | 28.60120 | -89.85961 | 34017 ft | 448 kts | 332° |
| 2026-05-06 17:31 | 28.65958 | -89.88433 | 34015 ft | 447 kts | 332° |
| 2026-05-06 17:32 | 28.71787 | -89.90905 | 34017 ft | 447 kts | 332° |
| 2026-05-06 17:32 | 28.77620 | -89.93380 | 34018 ft | 447 kts | 332° |
| 2026-05-06 17:33 | 28.83446 | -89.95856 | 34019 ft | 447 kts | 332° |
| 2026-05-06 17:33 | 28.89273 | -89.98334 | 34019 ft | 446 kts | 332° |
| 2026-05-06 17:34 | 28.95088 | -90.00811 | 34017 ft | 446 kts | 332° |
| 2026-05-06 17:34 | 29.00892 | -90.03285 | 34018 ft | 445 kts | 332° |
| 2026-05-06 17:35 | 29.06695 | -90.05763 | 34012 ft | 445 kts | 331° |
| 2026-05-06 17:35 | 29.12486 | -90.08238 | 34015 ft | 445 kts | 332° |
| 2026-05-06 17:36 | 29.18642 | -90.09779 | 34357 ft | 465 kts | 348° |
| 2026-05-06 17:36 | 29.21911 | -90.09712 | 34602 ft | 474 kts | 355° |
| 2026-05-06 17:36 | 29.25203 | -90.09361 | 34835 ft | 476 kts | 358° |
| 2026-05-06 17:36 | 29.28502 | -90.08900 | 34993 ft | 479 kts | 359° |
| 2026-05-06 17:37 | 29.35105 | -90.07857 | 35022 ft | 479 kts | 359° |
| 2026-05-06 17:37 | 29.41705 | -90.06814 | 35021 ft | 479 kts | 359° |
| 2026-05-06 17:38 | 29.48308 | -90.05808 | 35020 ft | 478 kts | 359° |
| 2026-05-06 17:38 | 29.54909 | -90.04819 | 35016 ft | 478 kts | 358° |
| 2026-05-06 17:39 | 29.61505 | -90.03834 | 35017 ft | 478 kts | 358° |
| 2026-05-06 17:39 | 29.68111 | -90.02844 | 35021 ft | 479 kts | 358° |
| 2026-05-06 17:40 | 29.74718 | -90.01851 | 35030 ft | 479 kts | 358° |
| 2026-05-06 17:40 | 29.81320 | -90.00857 | 35030 ft | 479 kts | 358° |
| 2026-05-06 17:41 | 29.87880 | -89.98939 | 35033 ft | 494 kts | 11° |
| 2026-05-06 17:41 | 29.94330 | -89.96099 | 35023 ft | 497 kts | 13° |
| 2026-05-06 17:42 | 30.00748 | -89.93095 | 35026 ft | 498 kts | 13° |
| 2026-05-06 17:42 | 30.07164 | -89.90086 | 35025 ft | 498 kts | 13° |
| 2026-05-06 17:43 | 30.13595 | -89.87092 | 35018 ft | 498 kts | 13° |
| 2026-05-06 17:43 | 30.20018 | -89.84111 | 35018 ft | 498 kts | 13° |
| 2026-05-06 17:44 | 30.26449 | -89.81125 | 35027 ft | 498 kts | 13° |
| 2026-05-06 17:44 | 30.32873 | -89.78137 | 35031 ft | 497 kts | 13° |
| 2026-05-06 17:45 | 30.39293 | -89.75146 | 35027 ft | 497 kts | 13° |
| 2026-05-06 17:45 | 30.45721 | -89.72146 | 35017 ft | 497 kts | 13° |
| 2026-05-06 17:46 | 30.52143 | -89.69145 | 35017 ft | 497 kts | 13° |
| 2026-05-06 17:46 | 30.58568 | -89.66138 | 35019 ft | 498 kts | 13° |
| 2026-05-06 17:47 | 30.64985 | -89.63130 | 35013 ft | 497 kts | 13° |
| 2026-05-06 17:47 | 30.71407 | -89.60116 | 35004 ft | 498 kts | 13° |
| 2026-05-06 17:48 | 30.77864 | -89.57082 | 35012 ft | 497 kts | 13° |
| 2026-05-06 17:48 | 30.84284 | -89.54059 | 35013 ft | 497 kts | 13° |
| 2026-05-06 17:49 | 30.89619 | -89.51545 | 35013 ft | 497 kts | 13° |
| 2026-05-06 17:49 | 30.97078 | -89.48024 | 35022 ft | 497 kts | 13° |
| 2026-05-06 17:50 | 31.02443 | -89.45488 | 35022 ft | 497 kts | 13° |
| 2026-05-06 17:50 | 31.08858 | -89.42453 | 35030 ft | 497 kts | 13° |
| 2026-05-06 17:51 | 31.15268 | -89.39414 | 35032 ft | 497 kts | 13° |
| 2026-05-06 17:51 | 31.21683 | -89.36369 | 35037 ft | 497 kts | 13° |
| 2026-05-06 17:52 | 31.28100 | -89.33318 | 35038 ft | 498 kts | 13° |
| 2026-05-06 17:52 | 31.34478 | -89.30282 | 35036 ft | 498 kts | 13° |
| 2026-05-06 17:53 | 31.40930 | -89.27207 | 35038 ft | 498 kts | 13° |
| 2026-05-06 17:53 | 31.47309 | -89.24160 | 35035 ft | 498 kts | 13° |
| 2026-05-06 17:54 | 31.53756 | -89.21077 | 35035 ft | 497 kts | 13° |
| 2026-05-06 17:54 | 31.60120 | -89.18029 | 35028 ft | 497 kts | 13° |
| 2026-05-06 17:55 | 31.66562 | -89.14939 | 35027 ft | 497 kts | 13° |
| 2026-05-06 17:55 | 31.72931 | -89.11881 | 35030 ft | 498 kts | 13° |
| 2026-05-06 17:56 | 31.79398 | -89.08772 | 35023 ft | 499 kts | 13° |
| 2026-05-06 17:56 | 31.85828 | -89.05674 | 35021 ft | 500 kts | 13° |
| 2026-05-06 17:57 | 31.92272 | -89.02562 | 35011 ft | 501 kts | 13° |
| 2026-05-06 17:57 | 31.98720 | -88.99446 | 35007 ft | 501 kts | 13° |
| 2026-05-06 17:58 | 32.05168 | -88.96325 | 35003 ft | 501 kts | 13° |
| 2026-05-06 17:58 | 32.11622 | -88.93197 | 35004 ft | 501 kts | 13° |
| 2026-05-06 17:59 | 32.18074 | -88.90065 | 35010 ft | 501 kts | 13° |
| 2026-05-06 17:59 | 32.24526 | -88.86928 | 35012 ft | 501 kts | 13° |
| 2026-05-06 18:00 | 32.30974 | -88.83788 | 35021 ft | 502 kts | 13° |
| 2026-05-06 18:00 | 32.37429 | -88.80639 | 35019 ft | 502 kts | 13° |
| 2026-05-06 18:01 | 32.43867 | -88.77348 | 35017 ft | 505 kts | 15° |
| 2026-05-06 18:01 | 32.50289 | -88.73960 | 35003 ft | 506 kts | 15° |
| 2026-05-06 18:02 | 32.56720 | -88.70563 | 35014 ft | 506 kts | 15° |
| 2026-05-06 18:02 | 32.63154 | -88.67177 | 35014 ft | 506 kts | 15° |
| 2026-05-06 18:03 | 32.69599 | -88.63788 | 35000 ft | 507 kts | 15° |
| 2026-05-06 18:03 | 32.76046 | -88.60393 | 35000 ft | 508 kts | 15° |
| 2026-05-06 18:04 | 32.82513 | -88.56984 | 35007 ft | 509 kts | 15° |
| 2026-05-06 18:04 | 32.89003 | -88.53554 | 35003 ft | 510 kts | 15° |
| 2026-05-06 18:05 | 32.95489 | -88.50120 | 34997 ft | 511 kts | 15° |
| 2026-05-06 18:05 | 33.01986 | -88.46674 | 34987 ft | 511 kts | 15° |
| 2026-05-06 18:06 | 33.08490 | -88.43222 | 34988 ft | 512 kts | 14° |
| 2026-05-06 18:06 | 33.15010 | -88.39754 | 34986 ft | 513 kts | 14° |
| 2026-05-06 18:07 | 33.21536 | -88.36276 | 34981 ft | 514 kts | 14° |
| 2026-05-06 18:07 | 33.28064 | -88.32791 | 34974 ft | 514 kts | 14° |
| 2026-05-06 18:08 | 33.34601 | -88.29297 | 34970 ft | 515 kts | 14° |
| 2026-05-06 18:08 | 33.41144 | -88.25794 | 34964 ft | 515 kts | 14° |
| 2026-05-06 18:09 | 33.47686 | -88.22286 | 34947 ft | 515 kts | 14° |
| 2026-05-06 18:09 | 33.54223 | -88.18775 | 34942 ft | 514 kts | 14° |
| 2026-05-06 18:10 | 33.60756 | -88.15260 | 34939 ft | 515 kts | 14° |
| 2026-05-06 18:10 | 33.67292 | -88.11738 | 34940 ft | 515 kts | 14° |
| 2026-05-06 18:11 | 33.73832 | -88.08208 | 34952 ft | 515 kts | 14° |
| 2026-05-06 18:11 | 33.80369 | -88.04673 | 34944 ft | 516 kts | 14° |
| 2026-05-06 18:12 | 33.86915 | -88.01127 | 34945 ft | 516 kts | 14° |
| 2026-05-06 18:12 | 33.93469 | -87.97572 | 34945 ft | 516 kts | 14° |
| 2026-05-06 18:13 | 34.00015 | -87.94014 | 34943 ft | 516 kts | 14° |
| 2026-05-06 18:13 | 34.06559 | -87.90453 | 34938 ft | 517 kts | 14° |
| 2026-05-06 18:14 | 34.13120 | -87.86876 | 34940 ft | 518 kts | 14° |
| 2026-05-06 18:14 | 34.19688 | -87.83287 | 34942 ft | 519 kts | 14° |
| 2026-05-06 18:15 | 34.26278 | -87.79680 | 34942 ft | 520 kts | 14° |
| 2026-05-06 18:15 | 34.32877 | -87.76062 | 34946 ft | 521 kts | 14° |
| 2026-05-06 18:16 | 34.39474 | -87.72437 | 34947 ft | 521 kts | 14° |
| 2026-05-06 18:16 | 34.46069 | -87.68809 | 34958 ft | 520 kts | 14° |
| 2026-05-06 18:17 | 34.52663 | -87.65176 | 34969 ft | 521 kts | 14° |
| 2026-05-06 18:17 | 34.59267 | -87.61531 | 34978 ft | 521 kts | 14° |
| 2026-05-06 18:18 | 34.65864 | -87.57882 | 34979 ft | 521 kts | 14° |
| 2026-05-06 18:18 | 34.72459 | -87.54228 | 34984 ft | 521 kts | 14° |
| 2026-05-06 18:19 | 34.79050 | -87.50571 | 34983 ft | 520 kts | 14° |
| 2026-05-06 18:19 | 34.85634 | -87.46912 | 34974 ft | 520 kts | 14° |
| 2026-05-06 18:20 | 34.92182 | -87.43267 | 34973 ft | 521 kts | 14° |
| 2026-05-06 18:20 | 34.98820 | -87.39564 | 34971 ft | 522 kts | 14° |
| 2026-05-06 18:21 | 35.05375 | -87.35900 | 34979 ft | 522 kts | 14° |
| 2026-05-06 18:21 | 35.11981 | -87.32202 | 34982 ft | 522 kts | 14° |
| 2026-05-06 18:22 | 35.18589 | -87.28495 | 34985 ft | 523 kts | 14° |
| 2026-05-06 18:22 | 35.25197 | -87.24783 | 34987 ft | 523 kts | 14° |
| 2026-05-06 18:23 | 35.31821 | -87.21054 | 34989 ft | 524 kts | 14° |
| 2026-05-06 18:23 | 35.38454 | -87.17315 | 35016 ft | 525 kts | 14° |
| 2026-05-06 18:24 | 35.45100 | -87.13560 | 35014 ft | 526 kts | 14° |
| 2026-05-06 18:24 | 35.51756 | -87.09791 | 35015 ft | 527 kts | 14° |
| 2026-05-06 18:25 | 35.58456 | -87.05992 | 35013 ft | 527 kts | 14° |
| 2026-05-06 18:25 | 35.65120 | -87.02205 | 35014 ft | 528 kts | 14° |
| 2026-05-06 18:26 | 35.71748 | -86.98433 | 35011 ft | 528 kts | 13° |
| 2026-05-06 18:26 | 35.78421 | -86.94627 | 35004 ft | 528 kts | 13° |
| 2026-05-06 18:27 | 35.85088 | -86.90819 | 35002 ft | 528 kts | 13° |
| 2026-05-06 18:27 | 35.88425 | -86.88911 | 35145 ft | 529 kts | 13° |
| 2026-05-06 18:27 | 35.91762 | -86.87000 | 35435 ft | 528 kts | 13° |
| 2026-05-06 18:28 | 35.95084 | -86.85093 | 35761 ft | 526 kts | 13° |
| 2026-05-06 18:28 | 35.98402 | -86.83187 | 36048 ft | 525 kts | 12° |
| 2026-05-06 18:28 | 36.01709 | -86.81287 | 36331 ft | 524 kts | 12° |
| 2026-05-06 18:28 | 36.05020 | -86.79384 | 36600 ft | 524 kts | 12° |
| 2026-05-06 18:29 | 36.08322 | -86.77485 | 36869 ft | 523 kts | 12° |
| 2026-05-06 18:29 | 36.10550 | -86.76203 | 36990 ft | 524 kts | 12° |
| 2026-05-06 18:29 | 36.17108 | -86.72426 | 37019 ft | 523 kts | 12° |
| 2026-05-06 18:30 | 36.23701 | -86.68621 | 37019 ft | 523 kts | 12° |
| 2026-05-06 18:30 | 36.30296 | -86.64806 | 37016 ft | 523 kts | 12° |
| 2026-05-06 18:31 | 36.36883 | -86.60987 | 37042 ft | 523 kts | 12° |
| 2026-05-06 18:31 | 36.43479 | -86.57157 | 37051 ft | 523 kts | 11° |
| 2026-05-06 18:32 | 36.50065 | -86.53324 | 37048 ft | 523 kts | 11° |
| 2026-05-06 18:32 | 36.56653 | -86.49484 | 37039 ft | 523 kts | 11° |
| 2026-05-06 18:33 | 36.63233 | -86.45640 | 37027 ft | 522 kts | 11° |
| 2026-05-06 18:33 | 36.69811 | -86.41791 | 37013 ft | 522 kts | 11° |
| 2026-05-06 18:34 | 36.76392 | -86.37933 | 37014 ft | 522 kts | 11° |
| 2026-05-06 18:34 | 36.82957 | -86.34077 | 37019 ft | 522 kts | 11° |
| 2026-05-06 18:35 | 36.89532 | -86.30208 | 37019 ft | 522 kts | 11° |
| 2026-05-06 18:35 | 36.96098 | -86.26337 | 37017 ft | 522 kts | 11° |
| 2026-05-06 18:36 | 37.02661 | -86.22460 | 37016 ft | 521 kts | 11° |
| 2026-05-06 18:36 | 37.09219 | -86.18577 | 37001 ft | 521 kts | 11° |
| 2026-05-06 18:37 | 37.15776 | -86.14689 | 37004 ft | 521 kts | 11° |
| 2026-05-06 18:37 | 37.22327 | -86.10797 | 36993 ft | 521 kts | 11° |
| 2026-05-06 18:38 | 37.28883 | -86.06894 | 36998 ft | 521 kts | 11° |
| 2026-05-06 18:38 | 37.35430 | -86.02991 | 36992 ft | 521 kts | 11° |
| 2026-05-06 18:39 | 37.41992 | -85.99069 | 36991 ft | 522 kts | 11° |
| 2026-05-06 18:40 | 37.51827 | -85.93176 | 36988 ft | 522 kts | 11° |
| 2026-05-06 18:40 | 37.58395 | -85.89232 | 36994 ft | 523 kts | 11° |
| 2026-05-06 18:41 | 37.64907 | -85.85314 | 36993 ft | 523 kts | 11° |
| 2026-05-06 18:41 | 37.71483 | -85.81349 | 37000 ft | 523 kts | 11° |
| 2026-05-06 18:42 | 37.78059 | -85.77376 | 37000 ft | 524 kts | 11° |
| 2026-05-06 18:42 | 37.84629 | -85.73399 | 36984 ft | 524 kts | 11° |
| 2026-05-06 18:43 | 37.91199 | -85.69415 | 36989 ft | 524 kts | 11° |
| 2026-05-06 18:43 | 37.97788 | -85.65411 | 36986 ft | 524 kts | 11° |
| 2026-05-06 18:44 | 38.04363 | -85.61407 | 37008 ft | 525 kts | 11° |
| 2026-05-06 18:44 | 38.10945 | -85.57376 | 37009 ft | 527 kts | 12° |
| 2026-05-06 18:45 | 38.17478 | -85.53037 | 37015 ft | 531 kts | 14° |
| 2026-05-06 18:45 | 38.23975 | -85.48556 | 37005 ft | 532 kts | 14° |
| 2026-05-06 18:46 | 38.30486 | -85.44070 | 37008 ft | 531 kts | 14° |
| 2026-05-06 18:46 | 38.36996 | -85.39613 | 37005 ft | 531 kts | 14° |
| 2026-05-06 18:47 | 38.43515 | -85.35154 | 36997 ft | 531 kts | 14° |
| 2026-05-06 18:47 | 38.50026 | -85.30693 | 37004 ft | 532 kts | 14° |
| 2026-05-06 18:48 | 38.56544 | -85.26215 | 37008 ft | 532 kts | 14° |
| 2026-05-06 18:48 | 38.63057 | -85.21730 | 37009 ft | 532 kts | 14° |
| 2026-05-06 18:49 | 38.69568 | -85.17238 | 37015 ft | 531 kts | 14° |
| 2026-05-06 18:49 | 38.76074 | -85.12738 | 37008 ft | 531 kts | 13° |
| 2026-05-06 18:50 | 38.82534 | -85.08263 | 37005 ft | 531 kts | 13° |
| 2026-05-06 18:50 | 38.89029 | -85.03752 | 36997 ft | 531 kts | 14° |
| 2026-05-06 18:51 | 38.95529 | -84.99228 | 36998 ft | 531 kts | 14° |
| 2026-05-06 18:51 | 39.02017 | -84.94704 | 36994 ft | 531 kts | 14° |
| 2026-05-06 18:52 | 39.08502 | -84.90171 | 37003 ft | 530 kts | 14° |
| 2026-05-06 18:52 | 39.14986 | -84.85631 | 37007 ft | 530 kts | 14° |
| 2026-05-06 18:53 | 39.21462 | -84.81086 | 37005 ft | 530 kts | 14° |
| 2026-05-06 18:53 | 39.27935 | -84.76533 | 37015 ft | 530 kts | 14° |
| 2026-05-06 18:54 | 39.34406 | -84.71973 | 37013 ft | 529 kts | 14° |
| 2026-05-06 18:54 | 39.40868 | -84.67409 | 37015 ft | 529 kts | 14° |
| 2026-05-06 18:55 | 39.47329 | -84.62836 | 37010 ft | 529 kts | 14° |
| 2026-05-06 18:55 | 39.53786 | -84.58256 | 37014 ft | 529 kts | 14° |
| 2026-05-06 18:56 | 39.60234 | -84.53673 | 37005 ft | 529 kts | 14° |
| 2026-05-06 18:56 | 39.66683 | -84.49080 | 37017 ft | 528 kts | 14° |
| 2026-05-06 18:57 | 39.73123 | -84.44483 | 37011 ft | 528 kts | 14° |
| 2026-05-06 18:57 | 39.79555 | -84.39881 | 37010 ft | 528 kts | 14° |
| 2026-05-06 18:58 | 39.85994 | -84.35266 | 37015 ft | 528 kts | 14° |
| 2026-05-06 18:58 | 39.92422 | -84.30647 | 37013 ft | 528 kts | 14° |
| 2026-05-06 18:59 | 39.98797 | -84.26053 | 37012 ft | 527 kts | 14° |
| 2026-05-06 18:59 | 40.05216 | -84.21415 | 37007 ft | 527 kts | 14° |
| 2026-05-06 19:00 | 40.11635 | -84.16768 | 37006 ft | 527 kts | 14° |
| 2026-05-06 19:00 | 40.18047 | -84.12115 | 37004 ft | 527 kts | 14° |
| 2026-05-06 19:01 | 40.24453 | -84.07457 | 36999 ft | 527 kts | 14° |
| 2026-05-06 19:01 | 40.30866 | -84.02807 | 37003 ft | 526 kts | 14° |
| 2026-05-06 19:02 | 40.37283 | -83.98216 | 37006 ft | 526 kts | 14° |
| 2026-05-06 19:02 | 40.43700 | -83.93616 | 37002 ft | 526 kts | 14° |
| 2026-05-06 19:03 | 40.50118 | -83.89004 | 37001 ft | 526 kts | 14° |
| 2026-05-06 19:03 | 40.56533 | -83.84383 | 36999 ft | 526 kts | 14° |
| 2026-05-06 19:04 | 40.62949 | -83.79751 | 37001 ft | 526 kts | 14° |
| 2026-05-06 19:04 | 40.69323 | -83.75140 | 37003 ft | 526 kts | 14° |
| 2026-05-06 19:05 | 40.75738 | -83.70486 | 37003 ft | 526 kts | 14° |
| 2026-05-06 19:05 | 40.82147 | -83.65828 | 36994 ft | 526 kts | 14° |
| 2026-05-06 19:06 | 40.88566 | -83.61154 | 36985 ft | 527 kts | 14° |
| 2026-05-06 19:06 | 40.94978 | -83.56472 | 36986 ft | 527 kts | 15° |
| 2026-05-06 19:07 | 41.01399 | -83.51774 | 36985 ft | 527 kts | 15° |
| 2026-05-06 19:07 | 41.07819 | -83.47066 | 36986 ft | 528 kts | 15° |
| 2026-05-06 19:08 | 41.14247 | -83.42341 | 36990 ft | 528 kts | 15° |
| 2026-05-06 19:08 | 41.20671 | -83.37610 | 36990 ft | 528 kts | 15° |
| 2026-05-06 19:09 | 41.27097 | -83.32866 | 36995 ft | 529 kts | 15° |
| 2026-05-06 19:09 | 41.33533 | -83.28103 | 36996 ft | 529 kts | 16° |
| 2026-05-06 19:10 | 41.39969 | -83.23329 | 36994 ft | 530 kts | 16° |
| 2026-05-06 19:10 | 41.46408 | -83.18542 | 36982 ft | 530 kts | 16° |
| 2026-05-06 19:11 | 41.52855 | -83.13738 | 36973 ft | 530 kts | 17° |
| 2026-05-06 19:11 | 41.59293 | -83.08929 | 36972 ft | 531 kts | 17° |
| 2026-05-06 19:12 | 41.65739 | -83.04104 | 36969 ft | 531 kts | 17° |
| 2026-05-06 19:12 | 41.72178 | -82.99274 | 36974 ft | 531 kts | 17° |
| 2026-05-06 19:13 | 41.78617 | -82.94430 | 36975 ft | 531 kts | 18° |
| 2026-05-06 19:13 | 41.85048 | -82.89583 | 36983 ft | 531 kts | 18° |
| 2026-05-06 19:14 | 41.91485 | -82.84720 | 36978 ft | 530 kts | 18° |
| 2026-05-06 19:14 | 41.97912 | -82.79852 | 36977 ft | 530 kts | 18° |
| 2026-05-06 19:15 | 42.04288 | -82.75012 | 36972 ft | 529 kts | 18° |
| 2026-05-06 19:15 | 42.10694 | -82.70138 | 36972 ft | 529 kts | 19° |
| 2026-05-06 19:16 | 42.17097 | -82.65255 | 36971 ft | 528 kts | 19° |
| 2026-05-06 19:16 | 42.23492 | -82.60367 | 36977 ft | 528 kts | 19° |
| 2026-05-06 19:17 | 42.29876 | -82.55476 | 36977 ft | 527 kts | 19° |
| 2026-05-06 19:17 | 42.36250 | -82.50580 | 36974 ft | 527 kts | 19° |
| 2026-05-06 19:18 | 42.42614 | -82.45681 | 36973 ft | 526 kts | 20° |
| 2026-05-06 19:18 | 42.48974 | -82.40773 | 36974 ft | 526 kts | 20° |
| 2026-05-06 19:19 | 42.54248 | -82.36695 | 36972 ft | 525 kts | 20° |
| 2026-05-06 19:19 | 42.60591 | -82.31780 | 36982 ft | 524 kts | 20° |
| 2026-05-06 19:20 | 42.66841 | -82.26620 | 36979 ft | 534 kts | 30° |
| 2026-05-06 19:20 | 42.69588 | -82.23136 | 36989 ft | 547 kts | 44° |
| 2026-05-06 19:20 | 42.71947 | -82.19061 | 36992 ft | 550 kts | 48° |
| 2026-05-06 19:21 | 42.76469 | -82.10647 | 36988 ft | 551 kts | 49° |
| 2026-05-06 19:21 | 42.80835 | -82.02064 | 36991 ft | 554 kts | 55° |
| 2026-05-06 19:22 | 42.84651 | -81.92923 | 36982 ft | 555 kts | 57° |
| 2026-05-06 19:22 | 42.88427 | -81.83741 | 36979 ft | 555 kts | 57° |
| 2026-05-06 19:23 | 42.92195 | -81.74569 | 36979 ft | 554 kts | 57° |
| 2026-05-06 19:23 | 42.95951 | -81.65407 | 36980 ft | 553 kts | 57° |
| 2026-05-06 19:24 | 42.99694 | -81.56250 | 36971 ft | 552 kts | 58° |
| 2026-05-06 19:24 | 43.03425 | -81.47095 | 36961 ft | 551 kts | 58° |
| 2026-05-06 19:25 | 43.07147 | -81.37917 | 36955 ft | 551 kts | 58° |
| 2026-05-06 19:25 | 43.10774 | -81.28679 | 36954 ft | 551 kts | 59° |
| 2026-05-06 19:26 | 43.14375 | -81.19446 | 36742 ft | 548 kts | 59° |
| 2026-05-06 19:26 | 43.16165 | -81.14849 | 36119 ft | 546 kts | 59° |
| 2026-05-06 19:26 | 43.17952 | -81.10256 | 35392 ft | 547 kts | 59° |
| 2026-05-06 19:26 | 43.19729 | -81.05680 | 34405 ft | 541 kts | 59° |
| 2026-05-06 19:27 | 43.21470 | -81.01193 | 33040 ft | 540 kts | 59° |
| 2026-05-06 19:27 | 43.23248 | -80.96601 | 31577 ft | 538 kts | 59° |
| 2026-05-06 19:27 | 43.24998 | -80.92076 | 30136 ft | 534 kts | 59° |
| 2026-05-06 19:27 | 43.26707 | -80.87651 | 28397 ft | 531 kts | 60° |
| 2026-05-06 19:28 | 43.28431 | -80.83178 | 26528 ft | 529 kts | 60° |
| 2026-05-06 19:28 | 43.30148 | -80.78718 | 24723 ft | 527 kts | 61° |
| 2026-05-06 19:28 | 43.31846 | -80.74300 | 23330 ft | 517 kts | 62° |
| 2026-05-06 19:28 | 43.33485 | -80.70023 | 22288 ft | 498 kts | 62° |
| 2026-05-06 19:29 | 43.35097 | -80.65816 | 21380 ft | 496 kts | 62° |
| 2026-05-06 19:29 | 43.36699 | -80.61626 | 20448 ft | 494 kts | 62° |
| 2026-05-06 19:29 | 43.38287 | -80.57468 | 19527 ft | 492 kts | 62° |
| 2026-05-06 19:29 | 43.39873 | -80.53309 | 18651 ft | 489 kts | 62° |
| 2026-05-06 19:30 | 43.41433 | -80.49212 | 17990 ft | 479 kts | 62° |
| 2026-05-06 19:30 | 43.42969 | -80.45175 | 17270 ft | 472 kts | 62° |
| 2026-05-06 19:30 | 43.44468 | -80.41225 | 16958 ft | 460 kts | 62° |
| 2026-05-06 19:30 | 43.45876 | -80.37314 | 16905 ft | 446 kts | 66° |
| 2026-05-06 19:31 | 43.47009 | -80.33451 | 16903 ft | 426 kts | 69° |
| 2026-05-06 19:31 | 43.48044 | -80.29731 | 16903 ft | 407 kts | 70° |
| 2026-05-06 19:31 | 43.49957 | -80.22819 | 16908 ft | 378 kts | 70° |
| 2026-05-06 19:32 | 43.50886 | -80.19461 | 16692 ft | 374 kts | 70° |
| 2026-05-06 19:32 | 43.51791 | -80.16108 | 16134 ft | 371 kts | 70° |
| 2026-05-06 19:32 | 43.52680 | -80.12778 | 15307 ft | 369 kts | 70° |
| 2026-05-06 19:32 | 43.53561 | -80.09469 | 14539 ft | 365 kts | 70° |
| 2026-05-06 19:33 | 43.54430 | -80.06206 | 13815 ft | 361 kts | 70° |
| 2026-05-06 19:33 | 43.55289 | -80.02980 | 13050 ft | 355 kts | 70° |
| 2026-05-06 19:33 | 43.56131 | -79.99816 | 12339 ft | 348 kts | 70° |
| 2026-05-06 19:33 | 43.56957 | -79.96706 | 11608 ft | 342 kts | 70° |
| 2026-05-06 19:34 | 43.57764 | -79.93661 | 10915 ft | 336 kts | 70° |
| 2026-05-06 19:34 | 43.58557 | -79.90670 | 10288 ft | 328 kts | 70° |
| 2026-05-06 19:34 | 43.59318 | -79.87740 | 9661 ft | 321 kts | 73° |
| 2026-05-06 19:34 | 43.59875 | -79.84808 | 9122 ft | 308 kts | 78° |
| 2026-05-06 19:35 | 43.60330 | -79.82014 | 8834 ft | 290 kts | 78° |
| 2026-05-06 19:35 | 43.60751 | -79.79385 | 8555 ft | 274 kts | 78° |
| 2026-05-06 19:35 | 43.61155 | -79.76863 | 8140 ft | 265 kts | 78° |
| 2026-05-06 19:35 | 43.61516 | -79.74378 | 7628 ft | 262 kts | 85° |
| 2026-05-06 19:36 | 43.61275 | -79.71987 | 7299 ft | 248 kts | 121° |
| 2026-05-06 19:36 | 43.60246 | -79.70129 | 7206 ft | 243 kts | 139° |
| 2026-05-06 19:36 | 43.59031 | -79.68518 | 7038 ft | 242 kts | 141° |
| 2026-05-06 19:36 | 43.57801 | -79.66947 | 6884 ft | 241 kts | 141° |
| 2026-05-06 19:37 | 43.56576 | -79.65378 | 6723 ft | 240 kts | 141° |
| 2026-05-06 19:37 | 43.55358 | -79.63808 | 6580 ft | 239 kts | 140° |
| 2026-05-06 19:37 | 43.54145 | -79.62238 | 6423 ft | 239 kts | 140° |
| 2026-05-06 19:37 | 43.52937 | -79.60670 | 6265 ft | 238 kts | 140° |
| 2026-05-06 19:38 | 43.51734 | -79.59106 | 6121 ft | 237 kts | 140° |
| 2026-05-06 19:38 | 43.50535 | -79.57547 | 5962 ft | 236 kts | 140° |
| 2026-05-06 19:38 | 43.49341 | -79.55996 | 5807 ft | 236 kts | 140° |
| 2026-05-06 19:38 | 43.48146 | -79.54445 | 5662 ft | 235 kts | 140° |
| 2026-05-06 19:39 | 43.46957 | -79.52901 | 5508 ft | 235 kts | 140° |
| 2026-05-06 19:39 | 43.45771 | -79.51361 | 5360 ft | 234 kts | 140° |
| 2026-05-06 19:39 | 43.44585 | -79.49823 | 5209 ft | 234 kts | 140° |
| 2026-05-06 19:39 | 43.43402 | -79.48289 | 5057 ft | 233 kts | 140° |
| 2026-05-06 19:40 | 43.42220 | -79.46757 | 4902 ft | 233 kts | 140° |
| 2026-05-06 19:40 | 43.41038 | -79.45228 | 4768 ft | 233 kts | 140° |
| 2026-05-06 19:40 | 43.39859 | -79.43694 | 4611 ft | 234 kts | 137° |
| 2026-05-06 19:40 | 43.38887 | -79.41821 | 4477 ft | 253 kts | 115° |
| 2026-05-06 19:41 | 43.38578 | -79.39437 | 4146 ft | 264 kts | 85° |
| 2026-05-06 19:41 | 43.39275 | -79.37167 | 3713 ft | 255 kts | 46° |
| 2026-05-06 19:41 | 43.40709 | -79.35990 | 3511 ft | 234 kts | 8° |
| 2026-05-06 19:41 | 43.42251 | -79.36126 | 3343 ft | 216 kts | 347° |
| 2026-05-06 19:42 | 43.43704 | -79.36375 | 3222 ft | 205 kts | 351° |
| 2026-05-06 19:42 | 43.45093 | -79.36543 | 3078 ft | 196 kts | 352° |
| 2026-05-06 19:42 | 43.46417 | -79.36665 | 2985 ft | 184 kts | 352° |
| 2026-05-06 19:42 | 43.47612 | -79.36984 | 2976 ft | 165 kts | 338° |
| 2026-05-06 19:43 | 43.48566 | -79.37615 | 2987 ft | 140 kts | 325° |
| 2026-05-06 19:43 | 43.49300 | -79.38356 | 3007 ft | 123 kts | 318° |
| 2026-05-06 19:43 | 43.49933 | -79.39125 | 3023 ft | 121 kts | 315° |
| 2026-05-06 19:43 | 43.50547 | -79.39923 | 3027 ft | 121 kts | 315° |
| 2026-05-06 19:44 | 43.51164 | -79.40722 | 3031 ft | 122 kts | 315° |
| 2026-05-06 19:44 | 43.51784 | -79.41524 | 3036 ft | 122 kts | 315° |
| 2026-05-06 19:44 | 43.52405 | -79.42329 | 3037 ft | 123 kts | 315° |
| 2026-05-06 19:44 | 43.53025 | -79.43134 | 3036 ft | 123 kts | 315° |
| 2026-05-06 19:45 | 43.53645 | -79.43941 | 3037 ft | 122 kts | 315° |
| 2026-05-06 19:45 | 43.54266 | -79.44749 | 3038 ft | 123 kts | 315° |
| 2026-05-06 19:45 | 43.54885 | -79.45555 | 3039 ft | 122 kts | 315° |
| 2026-05-06 19:45 | 43.55504 | -79.46362 | 3044 ft | 122 kts | 315° |
| 2026-05-06 19:46 | 43.56123 | -79.47168 | 3045 ft | 122 kts | 315° |
| 2026-05-06 19:46 | 43.56742 | -79.47974 | 3047 ft | 123 kts | 315° |
| 2026-05-06 19:46 | 43.57363 | -79.48783 | 3052 ft | 123 kts | 315° |
| 2026-05-06 19:46 | 43.57984 | -79.49592 | 3048 ft | 123 kts | 315° |
| 2026-05-06 19:47 | 43.58606 | -79.50403 | 2986 ft | 123 kts | 316° |
| 2026-05-06 19:47 | 43.59227 | -79.51213 | 2813 ft | 123 kts | 316° |
| 2026-05-06 19:47 | 43.59849 | -79.52024 | 2647 ft | 123 kts | 317° |
| 2026-05-06 19:47 | 43.60470 | -79.52833 | 2470 ft | 123 kts | 317° |
| 2026-05-06 19:48 | 43.61091 | -79.53643 | 2300 ft | 123 kts | 317° |
| 2026-05-06 19:48 | 43.61713 | -79.54455 | 2136 ft | 123 kts | 318° |
| 2026-05-06 19:48 | 43.62338 | -79.55269 | 1955 ft | 123 kts | 318° |
| 2026-05-06 19:48 | 43.62961 | -79.56082 | 1789 ft | 123 kts | 319° |
| 2026-05-06 19:49 | 43.63584 | -79.56897 | 1606 ft | 124 kts | 319° |
| 2026-05-06 19:49 | 43.64206 | -79.57708 | 1418 ft | 122 kts | 319° |
| 2026-05-06 19:49 | 43.64821 | -79.58512 | 1235 ft | 121 kts | 319° |
| 2026-05-06 19:49 | 43.65432 | -79.59310 | 1059 ft | 121 kts | 320° |
| 2026-05-06 19:50 | 43.66040 | -79.60104 | 888 ft | 120 kts | 319° |
| 2026-05-06 19:50 | 43.66640 | -79.60887 | 728 ft | 118 kts | 320° |
| 2026-05-06 19:50 | 43.67236 | -79.61666 | 591 ft | 117 kts | 321° |
| 2026-05-06 19:50 | 43.67775 | -79.62357 | 573 ft | 86 kts | 315° |
| 2026-05-06 19:51 | 43.68084 | -79.62764 | 575 ft | 40 kts | 318° |
| 2026-05-06 19:51 | 43.68260 | -79.63000 | 574 ft | 34 kts | 317° |
| 2026-05-06 19:51 | 43.68387 | -79.63159 | 574 ft | 22 kts | 318° |
| 2026-05-06 19:51 | 43.68496 | -79.63273 | 573 ft | 17 kts | 331° |
| 2026-05-06 19:52 | 43.68594 | -79.63313 | 573 ft | 14 kts | 347° |
| 2026-05-06 19:52 | 43.68683 | -79.63333 | 572 ft | 12 kts | 3° |
| 2026-05-06 19:52 | 43.68705 | -79.63324 | 576 ft | 1 kts | 21° |
| 2026-05-06 19:52 | 43.68722 | -79.63315 | 578 ft | 4 kts | 21° |
| 2026-05-06 19:53 | 43.68750 | -79.63299 | 574 ft | 2 kts | 30° |
| 2026-05-06 19:53 | 43.68753 | -79.63272 | 575 ft | 4 kts | 93° |
| 2026-05-06 19:53 | 43.68740 | -79.63247 | 571 ft | 3 kts | 139° |
| 2026-05-06 19:53 | 43.68726 | -79.63228 | 573 ft | 6 kts | 133° |
| 2026-05-06 19:54 | 43.68675 | -79.63154 | 568 ft | 14 kts | 133° |
| 2026-05-06 19:54 | 43.68600 | -79.63049 | 569 ft | 15 kts | 136° |
| 2026-05-06 19:54 | 43.68526 | -79.62951 | 570 ft | 14 kts | 137° |
| 2026-05-06 19:54 | 43.68457 | -79.62864 | 569 ft | 13 kts | 137° |
| 2026-05-06 19:55 | 43.68391 | -79.62780 | 575 ft | 12 kts | 136° |
| 2026-05-06 19:55 | 43.68334 | -79.62706 | 572 ft | 12 kts | 137° |
| 2026-05-06 19:55 | 43.68253 | -79.62606 | 572 ft | 19 kts | 139° |
| 2026-05-06 19:55 | 43.68153 | -79.62472 | 571 ft | 20 kts | 136° |
| 2026-05-06 19:56 | 43.68054 | -79.62346 | 570 ft | 19 kts | 138° |
| 2026-05-06 19:56 | 43.67957 | -79.62222 | 571 ft | 19 kts | 137° |
| 2026-05-06 19:56 | 43.67934 | -79.62079 | 571 ft | 16 kts | 52° |
| 2026-05-06 19:56 | 43.67995 | -79.61989 | 571 ft | 12 kts | 42° |
| 2026-05-06 19:57 | 43.68063 | -79.61950 | 574 ft | 10 kts | 11° |
| 2026-05-06 19:57 | 43.68127 | -79.61959 | 571 ft | 9 kts | 345° |
| 2026-05-06 19:57 | 43.68157 | -79.61971 | 572 ft | 0 kts | 343° |
| 2026-05-06 19:57 | 43.68173 | -79.61978 | 571 ft | 0 kts | 343° |
| 2026-05-06 19:58 | 43.68174 | -79.61978 | 571 ft | 0 kts | 343° |